sensor_id;sensor_type;location;lat;lon;timestamp;pressure;altitude;pressure_sealevel;temperature;humidity
12759;BME280;20944;47.048;15.390;2023-02-21T00:00:45;97656.06;;;5.84;87.88
12759;BME280;20944;47.048;15.390;2023-02-21T00:03:32;97659.69;;;5.68;87.10
12759;BME280;20944;47.048;15.390;2023-02-21T00:06:18;97656.38;;;5.48;86.78
12759;BME280;20944;47.048;15.390;2023-02-21T00:09:03;97660.75;;;5.39;88.16
12759;BME280;20944;47.048;15.390;2023-02-21T00:11:49;97597.00;;;4.94;88.98
12759;BME280;20944;47.048;15.390;2023-02-21T00:14:35;97666.03;;;5.27;89.02
12759;BME280;20944;47.048;15.390;2023-02-21T00:17:22;97652.97;;;5.39;88.98
12759;BME280;20944;47.048;15.390;2023-02-21T00:20:08;97655.50;;;5.46;88.31
12759;BME280;20944;47.048;15.390;2023-02-21T00:22:54;97660.78;;;5.36;88.17
12759;BME280;20944;47.048;15.390;2023-02-21T00:25:39;97648.81;;;5.16;89.84
12759;BME280;20944;47.048;15.390;2023-02-21T00:28:25;97580.69;;;4.72;91.40
12759;BME280;20944;47.048;15.390;2023-02-21T00:31:10;97654.00;;;5.14;91.69
12759;BME280;20944;47.048;15.390;2023-02-21T00:33:57;97637.53;;;5.15;91.02
12759;BME280;20944;47.048;15.390;2023-02-21T00:36:43;97451.31;;;4.13;88.99
12759;BME280;20944;47.048;15.390;2023-02-21T00:39:29;97652.22;;;5.24;88.37
12759;BME280;20944;47.048;15.390;2023-02-21T00:42:14;97467.75;;;4.09;89.65
12759;BME280;20944;47.048;15.390;2023-02-21T00:45:00;97644.47;;;5.13;91.18
12759;BME280;20944;47.048;15.390;2023-02-21T00:47:46;97651.38;;;5.22;90.74
12759;BME280;20944;47.048;15.390;2023-02-21T00:50:33;97576.22;;;4.94;90.18
12759;BME280;20944;47.048;15.390;2023-02-21T00:53:18;97638.28;;;5.35;89.98
12759;BME280;20944;47.048;15.390;2023-02-21T00:56:04;97640.03;;;5.30;88.41
12759;BME280;20944;47.048;15.390;2023-02-21T00:58:50;97609.84;;;5.14;88.71
12759;BME280;20944;47.048;15.390;2023-02-21T01:01:36;97453.88;;;4.17;88.46
12759;BME280;20944;47.048;15.390;2023-02-21T01:04:21;97616.06;;;4.92;90.07
12759;BME280;20944;47.048;15.390;2023-02-21T01:07:08;97631.63;;;4.92;90.70
12759;BME280;20944;47.048;15.390;2023-02-21T01:09:54;97626.38;;;5.01;90.34
12759;BME280;20944;47.048;15.390;2023-02-21T01:12:39;97572.91;;;4.72;89.69
12759;BME280;20944;47.048;15.390;2023-02-21T01:15:25;97644.56;;;4.95;90.36
12759;BME280;20944;47.048;15.390;2023-02-21T01:18:10;97612.66;;;4.76;90.96
12759;BME280;20944;47.048;15.390;2023-02-21T01:20:56;97625.63;;;4.80;90.37
12759;BME280;20944;47.048;15.390;2023-02-21T01:23:43;97572.09;;;4.56;90.96
12759;BME280;20944;47.048;15.390;2023-02-21T01:26:28;97629.91;;;4.92;91.07
12759;BME280;20944;47.048;15.390;2023-02-21T01:29:14;97613.47;;;4.87;90.69
12759;BME280;20944;47.048;15.390;2023-02-21T01:31:59;97603.06;;;4.90;89.93
12759;BME280;20944;47.048;15.390;2023-02-21T01:34:45;97626.47;;;4.85;89.85
12759;BME280;20944;47.048;15.390;2023-02-21T01:37:30;97629.13;;;4.70;91.20
12759;BME280;20944;47.048;15.390;2023-02-21T01:40:18;97625.63;;;4.77;91.73
12759;BME280;20944;47.048;15.390;2023-02-21T01:43:13;97617.00;;;4.75;91.17
12759;BME280;20944;47.048;15.390;2023-02-21T01:46:02;97606.66;;;4.69;91.60
12759;BME280;20944;47.048;15.390;2023-02-21T01:48:48;97601.44;;;4.69;91.88
12759;BME280;20944;47.048;15.390;2023-02-21T01:51:37;97605.78;;;4.73;91.63
12759;BME280;20944;47.048;15.390;2023-02-21T01:54:26;97611.88;;;4.66;92.17
12759;BME280;20944;47.048;15.390;2023-02-21T01:57:14;97591.94;;;4.73;92.07
12759;BME280;20944;47.048;15.390;2023-02-21T02:00:04;97594.50;;;4.76;92.62
12759;BME280;20944;47.048;15.390;2023-02-21T02:02:54;97540.13;;;4.51;92.43
12759;BME280;20944;47.048;15.390;2023-02-21T02:05:42;97590.16;;;4.79;92.50
12759;BME280;20944;47.048;15.390;2023-02-21T02:08:30;97573.88;;;4.53;93.33
12759;BME280;20944;47.048;15.390;2023-02-21T02:11:40;97598.03;;;4.66;92.43
12759;BME280;20944;47.048;15.390;2023-02-21T02:17:32;97591.09;;;4.63;93.13
12759;BME280;20944;47.048;15.390;2023-02-21T02:20:23;97598.94;;;4.55;92.46
12759;BME280;20944;47.048;15.390;2023-02-21T02:23:25;97592.88;;;4.52;93.62
12759;BME280;20944;47.048;15.390;2023-02-21T02:26:21;97591.09;;;4.65;92.34
12759;BME280;20944;47.048;15.390;2023-02-21T02:29:10;97597.97;;;4.70;91.58
12759;BME280;20944;47.048;15.390;2023-02-21T02:32:00;97589.44;;;4.54;93.18
12759;BME280;20944;47.048;15.390;2023-02-21T02:34:54;97573.94;;;4.41;93.59
12759;BME280;20944;47.048;15.390;2023-02-21T02:37:27;97599.72;;;4.68;93.18
12759;BME280;20944;47.048;15.390;2023-02-21T02:40:01;97600.59;;;4.64;93.43
12759;BME280;20944;47.048;15.390;2023-02-21T02:42:45;97598.03;;;4.58;94.24
12759;BME280;20944;47.048;15.390;2023-02-21T02:45:21;97574.78;;;4.38;93.97
12759;BME280;20944;47.048;15.390;2023-02-21T02:47:56;97574.75;;;4.49;94.17
12759;BME280;20944;47.048;15.390;2023-02-21T02:50:27;97592.88;;;4.59;93.96
12759;BME280;20944;47.048;15.390;2023-02-21T02:53:00;97598.06;;;4.56;94.69
12759;BME280;20944;47.048;15.390;2023-02-21T02:55:34;97591.13;;;4.57;93.89
12759;BME280;20944;47.048;15.390;2023-02-21T02:58:04;97591.19;;;4.48;94.79
12759;BME280;20944;47.048;15.390;2023-02-21T03:00:36;97552.38;;;4.20;94.80
12759;BME280;20944;47.048;15.390;2023-02-21T03:03:34;97584.22;;;4.56;94.79
12759;BME280;20944;47.048;15.390;2023-02-21T03:06:18;97585.91;;;4.63;93.53
12759;BME280;20944;47.048;15.390;2023-02-21T03:08:57;97593.72;;;4.57;93.63
12759;BME280;20944;47.048;15.390;2023-02-21T03:11:29;97555.78;;;4.31;94.00
12759;BME280;20944;47.048;15.390;2023-02-21T03:14:03;97610.22;;;4.47;94.16
12759;BME280;20944;47.048;15.390;2023-02-21T03:16:35;97596.34;;;4.54;93.07
12759;BME280;20944;47.048;15.390;2023-02-21T03:19:09;97572.22;;;4.32;94.22
12759;BME280;20944;47.048;15.390;2023-02-21T03:21:43;97476.50;;;3.85;93.65
12759;BME280;20944;47.048;15.390;2023-02-21T03:24:15;97588.59;;;4.43;94.37
12759;BME280;20944;47.048;15.390;2023-02-21T03:26:47;97473.91;;;3.80;94.13
12759;BME280;20944;47.048;15.390;2023-02-21T03:29:17;97560.13;;;4.29;93.80
12759;BME280;20944;47.048;15.390;2023-02-21T03:31:49;97580.00;;;4.35;93.31
12759;BME280;20944;47.048;15.390;2023-02-21T03:34:19;97561.03;;;4.21;93.96
12759;BME280;20944;47.048;15.390;2023-02-21T03:36:49;97602.50;;;4.28;94.35
12759;BME280;20944;47.048;15.390;2023-02-21T03:39:17;97572.22;;;4.30;94.81
12759;BME280;20944;47.048;15.390;2023-02-21T03:41:45;97556.72;;;4.21;94.34
12759;BME280;20944;47.048;15.390;2023-02-21T03:44:13;97574.78;;;4.33;94.74
12759;BME280;20944;47.048;15.390;2023-02-21T03:46:42;97568.75;;;4.38;94.25
12759;BME280;20944;47.048;15.390;2023-02-21T03:49:10;97574.81;;;4.30;94.65
12759;BME280;20944;47.048;15.390;2023-02-21T03:51:38;97571.34;;;4.33;94.52
12759;BME280;20944;47.048;15.390;2023-02-21T03:54:08;97549.75;;;4.26;95.14
12759;BME280;20944;47.048;15.390;2023-02-21T03:56:36;97574.75;;;4.44;94.46
12759;BME280;20944;47.048;15.390;2023-02-21T03:59:08;97575.66;;;4.39;94.82
12759;BME280;20944;47.048;15.390;2023-02-21T04:01:36;97561.78;;;4.44;93.53
12759;BME280;20944;47.048;15.390;2023-02-21T04:04:04;97571.28;;;4.45;93.20
12759;BME280;20944;47.048;15.390;2023-02-21T04:06:33;97576.59;;;4.24;94.04
12759;BME280;20944;47.048;15.390;2023-02-21T04:09:02;97579.16;;;4.27;92.85
12759;BME280;20944;47.048;15.390;2023-02-21T04:11:31;97587.00;;;4.16;94.04
12759;BME280;20944;47.048;15.390;2023-02-21T04:13:59;97578.34;;;4.13;95.06
12759;BME280;20944;47.048;15.390;2023-02-21T04:16:27;97573.19;;;4.05;95.15
12759;BME280;20944;47.048;15.390;2023-02-21T04:18:56;97576.66;;;4.01;95.47
12759;BME280;20944;47.048;15.390;2023-02-21T04:21:24;97559.41;;;3.88;96.37
12759;BME280;20944;47.048;15.390;2023-02-21T04:23:52;97561.13;;;3.89;97.00
12759;BME280;20944;47.048;15.390;2023-02-21T04:26:21;97564.56;;;3.98;96.76
12759;BME280;20944;47.048;15.390;2023-02-21T04:28:51;97540.41;;;3.87;97.24
12759;BME280;20944;47.048;15.390;2023-02-21T04:31:19;97563.69;;;4.02;96.49
12759;BME280;20944;47.048;15.390;2023-02-21T04:33:48;97561.09;;;4.05;96.32
12759;BME280;20944;47.048;15.390;2023-02-21T04:36:31;97543.88;;;3.85;93.91
12759;BME280;20944;47.048;15.390;2023-02-21T04:38:59;97566.34;;;3.76;95.88
12759;BME280;20944;47.048;15.390;2023-02-21T04:41:28;97540.47;;;3.60;97.64
12759;BME280;20944;47.048;15.390;2023-02-21T04:43:57;97546.50;;;3.66;97.89
12759;BME280;20944;47.048;15.390;2023-02-21T04:46:25;97515.44;;;3.45;97.78
12759;BME280;20944;47.048;15.390;2023-02-21T04:48:54;97566.34;;;3.70;98.51
12759;BME280;20944;47.048;15.390;2023-02-21T04:51:24;97558.56;;;3.84;97.47
12759;BME280;20944;47.048;15.390;2023-02-21T04:53:53;97560.28;;;3.82;98.22
12759;BME280;20944;47.048;15.390;2023-02-21T04:56:24;97560.31;;;3.70;97.90
12759;BME280;20944;47.048;15.390;2023-02-21T04:58:53;97526.63;;;3.70;97.75
12759;BME280;20944;47.048;15.390;2023-02-21T05:01:26;97492.13;;;3.51;97.22
12759;BME280;20944;47.048;15.390;2023-02-21T05:03:55;97550.78;;;3.84;97.31
12759;BME280;20944;47.048;15.390;2023-02-21T05:06:24;97532.69;;;3.63;97.91
12759;BME280;20944;47.048;15.390;2023-02-21T05:08:52;97550.75;;;3.89;97.31
12759;BME280;20944;47.048;15.390;2023-02-21T05:11:21;97421.47;;;3.05;94.75
12759;BME280;20944;47.048;15.390;2023-02-21T05:13:50;97525.78;;;3.57;96.83
12759;BME280;20944;47.048;15.390;2023-02-21T05:16:19;97544.75;;;3.70;97.45
12759;BME280;20944;47.048;15.390;2023-02-21T05:18:49;97540.41;;;3.76;96.22
12759;BME280;20944;47.048;15.390;2023-02-21T05:21:18;97541.31;;;3.78;96.29
12759;BME280;20944;47.048;15.390;2023-02-21T05:23:46;97519.72;;;3.67;97.00
12759;BME280;20944;47.048;15.390;2023-02-21T05:26:24;97547.31;;;3.82;96.04
12759;BME280;20944;47.048;15.390;2023-02-21T05:28:53;97534.38;;;3.79;96.14
12759;BME280;20944;47.048;15.390;2023-02-21T05:31:21;97539.59;;;3.68;95.18
12759;BME280;20944;47.048;15.390;2023-02-21T05:33:51;97552.56;;;3.56;95.28
12759;BME280;20944;47.048;15.390;2023-02-21T05:36:20;97544.78;;;3.51;96.60
12759;BME280;20944;47.048;15.390;2023-02-21T05:38:51;97543.97;;;3.46;97.31
12759;BME280;20944;47.048;15.390;2023-02-21T05:41:20;97545.66;;;3.38;98.50
12759;BME280;20944;47.048;15.390;2023-02-21T05:43:49;97493.06;;;3.03;98.64
12759;BME280;20944;47.048;15.390;2023-02-21T05:46:20;97474.94;;;3.01;99.46
12759;BME280;20944;47.048;15.390;2023-02-21T05:48:48;97538.78;;;3.48;98.96
12759;BME280;20944;47.048;15.390;2023-02-21T05:51:18;97532.72;;;3.50;96.24
12759;BME280;20944;47.048;15.390;2023-02-21T05:53:47;97526.66;;;3.39;94.67
12759;BME280;20944;47.048;15.390;2023-02-21T05:56:16;97497.38;;;3.04;96.31
12759;BME280;20944;47.048;15.390;2023-02-21T05:58:45;97553.47;;;3.29;96.78
12759;BME280;20944;47.048;15.390;2023-02-21T06:01:13;97537.94;;;3.11;98.27
12759;BME280;20944;47.048;15.390;2023-02-21T06:03:41;97551.72;;;3.37;98.14
12759;BME280;20944;47.048;15.390;2023-02-21T06:06:10;97551.72;;;3.37;98.59
12759;BME280;20944;47.048;15.390;2023-02-21T06:08:44;97556.88;;;3.51;98.20
12759;BME280;20944;47.048;15.390;2023-02-21T06:11:13;97559.47;;;3.49;97.59
12759;BME280;20944;47.048;15.390;2023-02-21T06:13:42;97537.91;;;3.47;97.87
12759;BME280;20944;47.048;15.390;2023-02-21T06:16:10;97559.47;;;3.57;97.63
12759;BME280;20944;47.048;15.390;2023-02-21T06:18:38;97518.91;;;3.38;96.69
12759;BME280;20944;47.048;15.390;2023-02-21T06:21:06;97568.09;;;3.65;96.97
12759;BME280;20944;47.048;15.390;2023-02-21T06:23:35;97561.19;;;3.78;96.02
12759;BME280;20944;47.048;15.390;2023-02-21T06:26:04;97565.47;;;3.70;95.23
12759;BME280;20944;47.048;15.390;2023-02-21T06:28:33;97573.28;;;3.71;95.65
12759;BME280;20944;47.048;15.390;2023-02-21T06:31:02;97573.28;;;3.71;96.36
12759;BME280;20944;47.048;15.390;2023-02-21T06:33:31;97574.09;;;3.93;95.58
12759;BME280;20944;47.048;15.390;2023-02-21T06:36:03;97568.91;;;3.92;95.50
12759;BME280;20944;47.048;15.390;2023-02-21T06:38:31;97562.84;;;3.97;95.03
12759;BME280;20944;47.048;15.390;2023-02-21T06:40:59;97566.31;;;3.96;95.10
12759;BME280;20944;47.048;15.390;2023-02-21T06:43:30;97567.09;;;4.17;92.94
12759;BME280;20944;47.048;15.390;2023-02-21T06:45:58;97486.03;;;3.78;92.46
12759;BME280;20944;47.048;15.390;2023-02-21T06:48:27;97577.34;;;4.46;92.16
12759;BME280;20944;47.048;15.390;2023-02-21T06:50:55;97591.13;;;4.58;91.58
12759;BME280;20944;47.048;15.390;2023-02-21T06:53:23;97564.25;;;4.72;89.92
12759;BME280;20944;47.048;15.390;2023-02-21T06:55:52;97591.78;;;4.99;89.49
12759;BME280;20944;47.048;15.390;2023-02-21T06:58:20;97589.91;;;5.19;88.17
12759;BME280;20944;47.048;15.390;2023-02-21T07:00:50;97599.28;;;5.38;87.41
12759;BME280;20944;47.048;15.390;2023-02-21T07:03:18;97568.81;;;5.56;86.77
12759;BME280;20944;47.048;15.390;2023-02-21T07:05:47;97580.78;;;5.75;86.21
12759;BME280;20944;47.048;15.390;2023-02-21T07:08:15;97598.66;;;6.09;86.04
12759;BME280;20944;47.048;15.390;2023-02-21T07:10:43;97530.19;;;6.10;87.08
12759;BME280;20944;47.048;15.390;2023-02-21T07:13:12;97575.34;;;6.73;84.86
12759;BME280;20944;47.048;15.390;2023-02-21T07:15:40;97586.53;;;6.79;80.44
12759;BME280;20944;47.048;15.390;2023-02-21T07:18:10;97582.25;;;6.76;79.31
12759;BME280;20944;47.048;15.390;2023-02-21T07:20:38;97546.00;;;6.59;79.40
12759;BME280;20944;47.048;15.390;2023-02-21T07:23:06;97582.88;;;6.93;79.79
12759;BME280;20944;47.048;15.390;2023-02-21T07:25:34;97587.84;;;7.09;78.26
12759;BME280;20944;47.048;15.390;2023-02-21T07:28:03;97592.00;;;7.22;77.33
12759;BME280;20944;47.048;15.390;2023-02-21T07:30:31;97590.00;;;7.39;76.73
12759;BME280;20944;47.048;15.390;2023-02-21T07:33:00;97582.00;;;7.50;74.45
12759;BME280;20944;47.048;15.390;2023-02-21T07:35:29;97589.66;;;7.61;75.37
12759;BME280;20944;47.048;15.390;2023-02-21T07:37:58;97594.78;;;7.65;75.22
12759;BME280;20944;47.048;15.390;2023-02-21T07:40:26;97572.09;;;7.70;75.24
12759;BME280;20944;47.048;15.390;2023-02-21T07:42:54;97596.06;;;7.92;73.68
12759;BME280;20944;47.048;15.390;2023-02-21T07:45:22;97585.69;;;7.89;72.59
12759;BME280;20944;47.048;15.390;2023-02-21T07:47:50;97596.59;;;8.11;71.94
12759;BME280;20944;47.048;15.390;2023-02-21T07:50:19;97568.63;;;8.18;71.86
12759;BME280;20944;47.048;15.390;2023-02-21T07:52:50;97584.78;;;8.38;71.29
12759;BME280;20944;47.048;15.390;2023-02-21T07:55:18;97576.13;;;8.34;71.54
12759;BME280;20944;47.048;15.390;2023-02-21T07:57:47;97570.06;;;8.32;71.59
12759;BME280;20944;47.048;15.390;2023-02-21T08:00:16;97565.66;;;8.37;71.57
12759;BME280;20944;47.048;15.390;2023-02-21T08:02:46;97583.66;;;8.51;71.49
12759;BME280;20944;47.048;15.390;2023-02-21T08:05:16;97558.31;;;8.56;70.35
12759;BME280;20944;47.048;15.390;2023-02-21T08:07:44;97583.94;;;8.79;70.20
12759;BME280;20944;47.048;15.390;2023-02-21T08:10:19;97580.31;;;8.86;70.77
12759;BME280;20944;47.048;15.390;2023-02-21T08:12:48;97564.41;;;8.96;70.78
12759;BME280;20944;47.048;15.390;2023-02-21T08:15:16;97588.16;;;9.25;70.42
12759;BME280;20944;47.048;15.390;2023-02-21T08:17:47;97570.44;;;9.36;67.54
12759;BME280;20944;47.048;15.390;2023-02-21T08:20:15;97522.00;;;9.22;66.85
12759;BME280;20944;47.048;15.390;2023-02-21T08:22:44;97576.56;;;9.71;65.80
12759;BME280;20944;47.048;15.390;2023-02-21T08:25:15;97586.19;;;10.03;63.74
12759;BME280;20944;47.048;15.390;2023-02-21T08:27:43;97585.69;;;10.23;62.91
12759;BME280;20944;47.048;15.390;2023-02-21T08:30:13;97585.75;;;10.20;61.95
12759;BME280;20944;47.048;15.390;2023-02-21T08:32:43;97593.88;;;10.43;61.89
12759;BME280;20944;47.048;15.390;2023-02-21T08:35:14;97571.13;;;10.45;61.77
12759;BME280;20944;47.048;15.390;2023-02-21T08:37:43;97602.06;;;10.62;61.38
12759;BME280;20944;47.048;15.390;2023-02-21T08:40:13;97599.97;;;10.75;59.96
12759;BME280;20944;47.048;15.390;2023-02-21T08:42:42;97582.50;;;10.75;59.43
12759;BME280;20944;47.048;15.390;2023-02-21T08:45:14;97593.19;;;10.97;60.19
12759;BME280;20944;47.048;15.390;2023-02-21T08:47:43;97585.38;;;10.96;60.69
12759;BME280;20944;47.048;15.390;2023-02-21T08:50:12;97573.69;;;11.06;59.50
12759;BME280;20944;47.048;15.390;2023-02-21T08:52:40;97591.19;;;11.33;59.49
12759;BME280;20944;47.048;15.390;2023-02-21T08:55:08;97537.56;;;11.16;58.86
12759;BME280;20944;47.048;15.390;2023-02-21T08:57:38;97588.72;;;11.55;57.44
12759;BME280;20944;47.048;15.390;2023-02-21T09:00:09;97589.66;;;11.54;57.12
12759;BME280;20944;47.048;15.390;2023-02-21T09:02:38;97590.16;;;11.66;55.88
12759;BME280;20944;47.048;15.390;2023-02-21T09:05:07;97595.28;;;11.70;56.14
12759;BME280;20944;47.048;15.390;2023-02-21T09:07:35;97589.75;;;11.78;55.67
12759;BME280;20944;47.048;15.390;2023-02-21T09:10:05;97593.13;;;11.83;55.35
12759;BME280;20944;47.048;15.390;2023-02-21T09:12:35;97587.00;;;12.09;55.73
12759;BME280;20944;47.048;15.390;2023-02-21T09:15:06;97417.56;;;11.22;55.55
12759;BME280;20944;47.048;15.390;2023-02-21T09:17:34;97567.03;;;12.28;54.39
12759;BME280;20944;47.048;15.390;2023-02-21T09:20:05;97598.41;;;12.58;53.59
12759;BME280;20944;47.048;15.390;2023-02-21T09:22:33;97594.22;;;12.76;51.85
12759;BME280;20944;47.048;15.390;2023-02-21T09:25:02;97569.69;;;12.75;51.20
12759;BME280;20944;47.048;15.390;2023-02-21T09:27:31;97595.94;;;13.00;51.12
12759;BME280;20944;47.048;15.390;2023-02-21T09:30:09;97475.50;;;12.41;50.02
12759;BME280;20944;47.048;15.390;2023-02-21T09:32:38;97594.06;;;13.27;49.22
12759;BME280;20944;47.048;15.390;2023-02-21T09:35:07;97594.28;;;13.43;47.18
12759;BME280;20944;47.048;15.390;2023-02-21T09:37:39;97586.16;;;13.49;45.78
12759;BME280;20944;47.048;15.390;2023-02-21T09:40:13;97584.13;;;13.56;45.60
12759;BME280;20944;47.048;15.390;2023-02-21T09:42:42;97589.75;;;13.68;44.89
12759;BME280;20944;47.048;15.390;2023-02-21T09:45:15;97587.38;;;13.84;45.95
12759;BME280;20944;47.048;15.390;2023-02-21T09:47:48;97590.47;;;13.94;45.20
12759;BME280;20944;47.048;15.390;2023-02-21T09:50:19;97565.81;;;13.95;44.69
12759;BME280;20944;47.048;15.390;2023-02-21T09:52:55;97575.38;;;14.18;44.32
12759;BME280;20944;47.048;15.390;2023-02-21T09:55:28;97578.00;;;14.38;43.63
12759;BME280;20944;47.048;15.390;2023-02-21T09:57:57;97585.06;;;14.58;42.91
12759;BME280;20944;47.048;15.390;2023-02-21T10:00:32;97552.78;;;14.53;44.13
12759;BME280;20944;47.048;15.390;2023-02-21T10:03:13;97573.41;;;14.82;43.22
12759;BME280;20944;47.048;15.390;2023-02-21T10:05:45;97563.50;;;14.88;43.57
12759;BME280;20944;47.048;15.390;2023-02-21T10:08:22;97577.63;;;15.05;41.60
12759;BME280;20944;47.048;15.390;2023-02-21T10:10:58;97570.38;;;15.10;39.47
12759;BME280;20944;47.048;15.390;2023-02-21T10:13:37;97569.34;;;15.13;40.23
12759;BME280;20944;47.048;15.390;2023-02-21T10:16:13;97570.72;;;15.22;42.48
12759;BME280;20944;47.048;15.390;2023-02-21T10:18:49;97566.94;;;15.27;43.28
12759;BME280;20944;47.048;15.390;2023-02-21T10:21:24;97569.06;;;15.38;42.15
12759;BME280;20944;47.048;15.390;2023-02-21T10:23:55;97559.97;;;15.44;39.80
12759;BME280;20944;47.048;15.390;2023-02-21T10:26:36;97570.88;;;15.55;39.57
12759;BME280;20944;47.048;15.390;2023-02-21T10:29:12;97567.75;;;15.66;40.16
12759;BME280;20944;47.048;15.390;2023-02-21T10:31:47;97534.69;;;15.57;40.14
12759;BME280;20944;47.048;15.390;2023-02-21T10:34:19;97572.44;;;15.78;40.33
12759;BME280;20944;47.048;15.390;2023-02-21T10:36:49;97568.16;;;15.93;41.21
12759;BME280;20944;47.048;15.390;2023-02-21T10:39:20;97570.19;;;16.05;40.84
12759;BME280;20944;47.048;15.390;2023-02-21T10:41:49;97561.16;;;16.09;41.03
12759;BME280;20944;47.048;15.390;2023-02-21T10:44:21;97431.91;;;15.35;40.71
12759;BME280;20944;47.048;15.390;2023-02-21T10:47:00;97564.81;;;16.24;40.82
12759;BME280;20944;47.048;15.390;2023-02-21T10:49:33;97558.19;;;16.32;40.79
12759;BME280;20944;47.048;15.390;2023-02-21T10:52:08;97555.13;;;16.40;40.60
12759;BME280;20944;47.048;15.390;2023-02-21T10:54:37;97534.84;;;16.40;40.62
12759;BME280;20944;47.048;15.390;2023-02-21T10:57:07;97557.53;;;16.62;40.78
12759;BME280;20944;47.048;15.390;2023-02-21T10:59:40;97550.13;;;16.68;40.60
12759;BME280;20944;47.048;15.390;2023-02-21T11:02:29;97546.22;;;16.76;39.58
12759;BME280;20944;47.048;15.390;2023-02-21T11:05:13;97540.44;;;16.85;39.02
12759;BME280;20944;47.048;15.390;2023-02-21T11:07:56;97502.34;;;16.71;37.50
12759;BME280;20944;47.048;15.390;2023-02-21T11:10:31;97494.63;;;16.67;36.42
12759;BME280;20944;47.048;15.390;2023-02-21T11:13:13;97531.13;;;17.09;35.96
12759;BME280;20944;47.048;15.390;2023-02-21T11:15:43;97523.78;;;17.14;36.25
12759;BME280;20944;47.048;15.390;2023-02-21T11:18:17;97520.66;;;17.23;34.91
12759;BME280;20944;47.048;15.390;2023-02-21T11:20:46;97512.50;;;17.26;35.65
12759;BME280;20944;47.048;15.390;2023-02-21T11:23:24;97467.44;;;17.12;35.27
12759;BME280;20944;47.048;15.390;2023-02-21T11:25:59;97503.16;;;17.51;35.03
12759;BME280;20944;47.048;15.390;2023-02-21T11:28:36;97505.38;;;17.59;35.46
12759;BME280;20944;47.048;15.390;2023-02-21T11:31:12;97500.00;;;17.60;35.53
12759;BME280;20944;47.048;15.390;2023-02-21T11:33:50;97494.06;;;17.71;34.45
12759;BME280;20944;47.048;15.390;2023-02-21T11:36:19;97479.81;;;17.73;34.78
12759;BME280;20944;47.048;15.390;2023-02-21T11:39:03;97491.41;;;17.87;34.04
12759;BME280;20944;47.048;15.390;2023-02-21T11:41:36;97488.19;;;17.96;35.02
12759;BME280;20944;47.048;15.390;2023-02-21T11:44:23;97479.50;;;18.08;34.68
12759;BME280;20944;47.048;15.390;2023-02-21T11:47:00;97467.94;;;18.09;36.22
12759;BME280;20944;47.048;15.390;2023-02-21T11:49:38;97480.28;;;18.39;35.06
12759;BME280;20944;47.048;15.390;2023-02-21T11:52:18;97474.41;;;18.48;34.65
12759;BME280;20944;47.048;15.390;2023-02-21T11:54:47;97473.25;;;18.66;35.50
12759;BME280;20944;47.048;15.390;2023-02-21T11:57:20;97366.13;;;18.12;35.15
12759;BME280;20944;47.048;15.390;2023-02-21T11:59:58;97442.19;;;18.68;34.10
12759;BME280;20944;47.048;15.390;2023-02-21T12:02:50;97463.19;;;19.00;33.57
12759;BME280;20944;47.048;15.390;2023-02-21T12:05:31;97445.50;;;19.13;32.82
12759;BME280;20944;47.048;15.390;2023-02-21T12:08:28;97462.25;;;19.28;29.80
12759;BME280;20944;47.048;15.390;2023-02-21T12:11:10;97445.69;;;19.37;30.51
12759;BME280;20944;47.048;15.390;2023-02-21T12:13:50;97430.75;;;19.49;32.70
12759;BME280;20944;47.048;15.390;2023-02-21T12:16:34;97426.34;;;19.62;32.58
12759;BME280;20944;47.048;15.390;2023-02-21T12:19:20;97347.78;;;19.18;31.27
12759;BME280;20944;47.048;15.390;2023-02-21T12:22:01;97404.69;;;19.54;32.40
12759;BME280;20944;47.048;15.390;2023-02-21T12:24:45;97427.22;;;19.88;32.37
12759;BME280;20944;47.048;15.390;2023-02-21T12:27:25;97430.63;;;19.90;31.15
12759;BME280;20944;47.048;15.390;2023-02-21T12:30:06;97405.19;;;19.86;29.92
12759;BME280;20944;47.048;15.390;2023-02-21T12:32:55;97416.91;;;20.09;30.03
12759;BME280;20944;47.048;15.390;2023-02-21T12:38:36;97408.69;;;20.37;30.26
12759;BME280;20944;47.048;15.390;2023-02-21T12:41:18;97408.72;;;20.50;29.74
12759;BME280;20944;47.048;15.390;2023-02-21T12:43:54;97400.56;;;20.64;29.47
12759;BME280;20944;47.048;15.390;2023-02-21T12:46:29;97402.22;;;20.78;29.20
12759;BME280;20944;47.048;15.390;2023-02-21T12:49:02;97396.00;;;20.90;29.42
12759;BME280;20944;47.048;15.390;2023-02-21T12:51:36;97346.53;;;20.75;29.73
12759;BME280;20944;47.048;15.390;2023-02-21T12:54:11;97370.41;;;21.00;28.76
12759;BME280;20944;47.048;15.390;2023-02-21T12:56:46;97380.19;;;21.24;29.00
12759;BME280;20944;47.048;15.390;2023-02-21T12:59:20;97374.72;;;21.38;28.64
12759;BME280;20944;47.048;15.390;2023-02-21T13:01:55;97362.38;;;21.48;28.83
12759;BME280;20944;47.048;15.390;2023-02-21T13:04:33;97374.91;;;21.70;28.34
12759;BME280;20944;47.048;15.390;2023-02-21T13:07:05;97372.38;;;21.80;28.53
12759;BME280;20944;47.048;15.390;2023-02-21T13:09:44;97367.19;;;21.90;28.70
12759;BME280;20944;47.048;15.390;2023-02-21T13:12:18;97364.63;;;21.99;28.45
12759;BME280;20944;47.048;15.390;2023-02-21T13:14:50;97318.78;;;21.72;27.14
12759;BME280;20944;47.048;15.390;2023-02-21T13:17:21;97349.09;;;21.93;28.04
12759;BME280;20944;47.048;15.390;2023-02-21T13:19:53;97334.31;;;21.89;25.92
12759;BME280;20944;47.048;15.390;2023-02-21T13:25:42;97316.47;;;21.67;26.25
12759;BME280;20944;47.048;15.390;2023-02-21T13:28:17;97321.97;;;21.88;26.07
12759;BME280;20944;47.048;15.390;2023-02-21T13:30:49;97337.16;;;22.32;25.27
12759;BME280;20944;47.048;15.390;2023-02-21T13:33:28;97342.94;;;22.49;23.56
12759;BME280;20944;47.048;15.390;2023-02-21T13:35:58;97340.06;;;22.41;23.66
12759;BME280;20944;47.048;15.390;2023-02-21T13:38:28;97308.63;;;22.22;24.90
12759;BME280;20944;47.048;15.390;2023-02-21T13:41:06;97335.91;;;22.48;24.66
12759;BME280;20944;47.048;15.390;2023-02-21T13:43:45;97337.69;;;22.70;24.17